createdAt,value
2022-12-12T00:01:22.548Z,98658.91
2022-12-12T00:03:50.391Z,98661.91
2022-12-12T00:06:19.051Z,98661.63
2022-12-12T00:08:48.655Z,98649.22
2022-12-12T00:11:16.312Z,98653.19
2022-12-12T00:13:43.553Z,98660.78
2022-12-12T00:16:11.641Z,98655.81
2022-12-12T00:18:39.739Z,98654.03
2022-12-12T00:21:11.754Z,98650.38
2022-12-12T00:23:38.780Z,98653.84
2022-12-12T00:26:11.936Z,98660.06
2022-12-12T00:28:38.901Z,98663.50
2022-12-12T00:31:06.227Z,98656.94
2022-12-12T00:33:33.302Z,98661.34
2022-12-12T00:36:00.776Z,98664.25
2022-12-12T00:38:27.815Z,98663.88
2022-12-12T00:40:57.653Z,98666.97
2022-12-12T00:43:25.938Z,98668.41
2022-12-12T00:45:54.000Z,98672.25
2022-12-12T00:48:23.621Z,98671.69
2022-12-12T00:50:51.129Z,98677.00
2022-12-12T00:53:18.231Z,98674.66
2022-12-12T00:55:49.222Z,98674.09
2022-12-12T00:58:16.181Z,98668.41
2022-12-12T01:00:43.950Z,98676.06
2022-12-12T01:03:13.315Z,98683.00
2022-12-12T01:05:40.744Z,98683.00
2022-12-12T01:08:07.835Z,98687.31
2022-12-12T01:10:37.389Z,98683.69
2022-12-12T01:13:04.433Z,98692.38
2022-12-12T01:15:32.149Z,98686.50
2022-12-12T01:17:59.158Z,98688.75
2022-12-12T01:20:27.798Z,98697.38
2022-12-12T01:22:57.563Z,98697.63
2022-12-12T01:25:24.917Z,98697.44
2022-12-12T01:27:54.247Z,98698.47
2022-12-12T01:30:23.886Z,98695.47
2022-12-12T01:32:55.314Z,98697.25
2022-12-12T01:35:23.592Z,98693.34
2022-12-12T01:37:50.987Z,98692.47
2022-12-12T01:40:22.300Z,98693.88
2022-12-12T01:42:50.128Z,98690.59
2022-12-12T01:45:55.099Z,98668.03
2022-12-12T01:48:26.714Z,98681.69
2022-12-12T01:50:55.475Z,98678.59
2022-12-12T01:53:25.801Z,98678.38
2022-12-12T01:55:56.738Z,98677.25
2022-12-12T01:58:24.775Z,98673.66
2022-12-12T02:00:52.223Z,98672.06
2022-12-12T02:03:19.307Z,98679.66
2022-12-12T02:05:55.109Z,98673.16
2022-12-12T02:08:23.740Z,98676.06
2022-12-12T02:10:51.778Z,98682.59
2022-12-12T02:13:22.694Z,98683.97
2022-12-12T02:16:10.048Z,98682.00
2022-12-12T02:18:55.243Z,98687.44
2022-12-12T02:21:40.708Z,98683.63
2022-12-12T02:24:30.825Z,98685.97
2022-12-12T02:27:24.564Z,98686.56
2022-12-12T02:30:06.092Z,98686.84
2022-12-12T02:32:40.109Z,98692.88
2022-12-12T02:35:25.332Z,98692.66
2022-12-12T02:38:01.815Z,98689.03
2022-12-12T02:40:44.384Z,98690.41
2022-12-12T02:43:36.558Z,98685.56
2022-12-12T02:46:31.360Z,98678.47
2022-12-12T02:49:04.773Z,98681.06
2022-12-12T02:51:34.760Z,98689.41
2022-12-12T02:54:05.460Z,98689.69
2022-12-12T02:56:50.886Z,98686.97
2022-12-12T02:59:26.020Z,98687.22
2022-12-12T03:02:26.999Z,98687.22
2022-12-12T03:05:35.121Z,98698.09
2022-12-12T03:08:14.293Z,98697.91
2022-12-12T03:11:05.006Z,98700.19
2022-12-12T03:13:53.194Z,98691.41
2022-12-12T03:16:39.061Z,98696.53
2022-12-12T03:19:15.670Z,98688.22
2022-12-12T03:21:59.703Z,98696.53
2022-12-12T03:24:34.644Z,98695.03
2022-12-12T03:27:14.089Z,98696.53
2022-12-12T03:29:46.626Z,98697.28
2022-12-12T03:32:28.337Z,98691.75
2022-12-12T03:35:03.476Z,98697.47
2022-12-12T03:37:48.210Z,98703.34
2022-12-12T03:40:33.582Z,98694.75
2022-12-12T03:43:07.022Z,98700.38
2022-12-12T03:45:59.582Z,98700.81
2022-12-12T03:48:34.546Z,98697.66
2022-12-12T03:51:03.616Z,98701.75
2022-12-12T03:53:34.188Z,98695.13
2022-12-12T03:56:13.050Z,98701.00
2022-12-12T03:58:51.007Z,98705.41
2022-12-12T04:01:22.274Z,98700.31
2022-12-12T04:04:18.934Z,98695.25
2022-12-12T04:06:54.182Z,98692.41
2022-12-12T04:09:40.444Z,98702.69
2022-12-12T04:12:42.433Z,98705.59
2022-12-12T04:15:16.219Z,98706.78
2022-12-12T04:18:00.340Z,98706.03
2022-12-12T04:20:56.605Z,98708.09
2022-12-12T04:23:34.255Z,98714.28
2022-12-12T04:26:20.496Z,98715.81
2022-12-12T04:29:01.658Z,98716.53
2022-12-12T04:31:31.405Z,98709.44
2022-12-12T04:34:04.098Z,98713.00
2022-12-12T04:36:35.722Z,98705.91
2022-12-12T04:39:05.713Z,98704.25
2022-12-12T04:41:37.296Z,98710.25
2022-12-12T04:44:07.073Z,98705.56
2022-12-12T04:46:34.515Z,98704.81
2022-12-12T04:49:13.090Z,98712.31
2022-12-12T04:51:45.271Z,98711.13
2022-12-12T04:54:25.802Z,98711.13
2022-12-12T04:56:57.993Z,98710.66
2022-12-12T04:59:25.424Z,98716.84
2022-12-12T05:02:00.205Z,98713.66
2022-12-12T05:04:30.321Z,98723.41
2022-12-12T05:07:06.453Z,98720.34
2022-12-12T05:09:33.623Z,98716.56
2022-12-12T05:12:01.023Z,98725.47
2022-12-12T05:14:31.083Z,98733.16
2022-12-12T05:17:06.602Z,98732.13
2022-12-12T05:19:33.640Z,98728.66
2022-12-12T05:22:00.900Z,98738.94
2022-12-12T05:24:31.418Z,98737.56
2022-12-12T05:27:00.978Z,98745.13
2022-12-12T05:29:27.991Z,98746.53
2022-12-12T05:31:57.916Z,98745.19
2022-12-12T05:34:25.032Z,98750.63
2022-12-12T05:36:52.310Z,98758.47
2022-12-12T05:39:19.360Z,98751.09
2022-12-12T05:41:46.761Z,98755.75
2022-12-12T05:44:13.970Z,98748.72
2022-12-12T05:46:41.445Z,98746.19
2022-12-12T05:49:09.124Z,98745.03
2022-12-12T05:51:37.554Z,98744.44
2022-12-12T05:54:04.688Z,98742.94
2022-12-12T05:56:32.055Z,98756.97
2022-12-12T05:58:59.123Z,98746.56
2022-12-12T06:01:26.501Z,98755.00
2022-12-12T06:03:53.765Z,98746.41
2022-12-12T06:06:21.116Z,98755.00
2022-12-12T06:08:48.501Z,98759.97
2022-12-12T06:11:15.871Z,98759.25
2022-12-12T06:13:43.370Z,98764.50
2022-12-12T06:16:16.983Z,98764.50
2022-12-12T06:18:45.262Z,98767.78
2022-12-12T06:21:13.475Z,98756.19
2022-12-12T06:23:42.323Z,98764.59
2022-12-12T06:26:14.493Z,98767.03
2022-12-12T06:28:41.893Z,98775.00
2022-12-12T06:31:12.061Z,98773.03
2022-12-12T06:33:41.479Z,98774.25
2022-12-12T06:36:22.779Z,98778.63
2022-12-12T06:38:58.686Z,98776.84
2022-12-12T06:41:29.009Z,98781.34
2022-12-12T06:43:56.722Z,98778.47
2022-12-12T06:46:26.636Z,98778.63
2022-12-12T06:48:54.979Z,98785.59
2022-12-12T06:51:25.289Z,98798.97
2022-12-12T06:53:52.793Z,98794.28
2022-12-12T06:56:22.628Z,98791.69
2022-12-12T06:58:49.964Z,98793.22
2022-12-12T07:01:20.543Z,98790.16
2022-12-12T07:03:49.624Z,98789.75
2022-12-12T07:06:18.429Z,98801.06
2022-12-12T07:08:45.443Z,98803.31
2022-12-12T07:11:16.328Z,98811.94
2022-12-12T07:13:43.716Z,98817.81
2022-12-12T07:16:14.069Z,98809.38
2022-12-12T07:18:41.845Z,98818.28
2022-12-12T07:21:12.608Z,98811.50
2022-12-12T07:23:39.811Z,98813.19
2022-12-12T07:26:09.902Z,98822.38
2022-12-12T07:28:38.300Z,98824.31
2022-12-12T07:31:11.346Z,98815.59
2022-12-12T07:33:43.476Z,98823.47
2022-12-12T07:36:17.087Z,98824.63
2022-12-12T07:38:44.523Z,98823.00
2022-12-12T07:41:15.650Z,98824.91
2022-12-12T07:43:45.187Z,98829.38
2022-12-12T07:46:18.607Z,98825.69
2022-12-12T07:48:46.120Z,98824.59
2022-12-12T07:51:14.629Z,98833.78
2022-12-12T07:53:42.043Z,98837.72
2022-12-12T07:56:11.609Z,98835.69
2022-12-12T07:58:39.553Z,98834.78
2022-12-12T08:01:26.288Z,98829.56
2022-12-12T08:03:55.973Z,98839.78
2022-12-12T08:06:23.840Z,98837.75
2022-12-12T08:08:52.455Z,98849.00
2022-12-12T08:11:23.270Z,98842.78
2022-12-12T08:13:50.984Z,98843.31
2022-12-12T08:16:21.805Z,98839.50
2022-12-12T08:18:49.860Z,98849.34
2022-12-12T08:21:24.791Z,98845.88
2022-12-12T08:23:56.806Z,98852.41
2022-12-12T08:26:25.999Z,98854.97
2022-12-12T08:28:53.784Z,98848.03
2022-12-12T08:31:21.786Z,98865.78
2022-12-12T08:33:53.310Z,98866.78
2022-12-12T08:36:32.351Z,98870.38
2022-12-12T08:39:13.980Z,98877.88
2022-12-12T08:41:49.969Z,98870.97
2022-12-12T08:44:19.484Z,98878.56
2022-12-12T08:46:48.059Z,98888.66
2022-12-12T08:49:19.374Z,98888.53
2022-12-12T08:51:50.601Z,98894.97
2022-12-12T08:54:18.471Z,98882.75
2022-12-12T08:56:45.783Z,98894.97
2022-12-12T08:59:13.430Z,98889.13
2022-12-12T09:01:41.182Z,98888.28
2022-12-12T09:04:08.250Z,98909.47
2022-12-12T09:06:35.704Z,98908.88
2022-12-12T09:09:02.873Z,98910.94
2022-12-12T09:11:30.168Z,98908.16
2022-12-12T09:13:57.108Z,98917.25
2022-12-12T09:16:26.603Z,98918.50
2022-12-12T09:18:54.322Z,98918.97
2022-12-12T09:21:22.037Z,98923.78
2022-12-12T09:23:49.523Z,98920.69
2022-12-12T09:26:18.086Z,98935.88
2022-12-12T09:28:45.151Z,98928.91
2022-12-12T09:31:16.326Z,98938.06
2022-12-12T09:33:43.770Z,98937.78
2022-12-12T09:36:12.509Z,98928.34
2022-12-12T09:38:39.814Z,98942.13
2022-12-12T09:41:10.111Z,98931.97
2022-12-12T09:44:18.765Z,98935.34
2022-12-12T09:47:00.533Z,98937.78
2022-12-12T09:49:35.071Z,98944.16
2022-12-12T09:52:06.314Z,98927.75
2022-12-12T09:54:33.441Z,98925.97
2022-12-12T09:57:06.804Z,98930.59
2022-12-12T10:00:02.044Z,98930.66
2022-12-12T10:02:40.648Z,98928.06
2022-12-12T10:05:13.817Z,98923.44
2022-12-12T10:07:55.637Z,98917.53
2022-12-12T10:10:31.833Z,98920.00
2022-12-12T10:13:02.140Z,98918.75
2022-12-12T10:15:54.542Z,98925.16
2022-12-12T10:18:35.655Z,98909.66
2022-12-12T10:21:07.095Z,98907.22
2022-12-12T10:23:40.068Z,98908.34
2022-12-12T10:26:16.103Z,98905.72
2022-12-12T10:28:44.515Z,98912.97
2022-12-12T10:31:27.165Z,98901.31
2022-12-12T10:34:01.779Z,98914.59
2022-12-12T10:37:17.001Z,98909.72
2022-12-12T10:39:50.228Z,98906.34
2022-12-12T10:42:22.740Z,98909.19
2022-12-12T10:45:17.934Z,98903.66
2022-12-12T10:47:45.561Z,98908.91
2022-12-12T10:50:33.780Z,98918.47
2022-12-12T10:53:05.176Z,98905.34
2022-12-12T10:55:53.618Z,98908.53
2022-12-12T10:58:35.735Z,98902.50
2022-12-12T11:01:10.285Z,98907.88
2022-12-12T11:03:46.824Z,98903.03
2022-12-12T11:06:38.435Z,98907.75
2022-12-12T11:09:26.163Z,98903.41
2022-12-12T11:12:01.177Z,98908.44
2022-12-12T11:14:39.876Z,98902.41
2022-12-12T11:17:24.672Z,98907.66
2022-12-12T11:19:54.113Z,98917.38
2022-12-12T11:22:22.117Z,98918.09
2022-12-12T11:24:50.369Z,98919.31
2022-12-12T11:27:50.391Z,98914.97
2022-12-12T11:30:32.808Z,98920.16
2022-12-12T11:33:01.401Z,98913.44
2022-12-12T11:35:36.274Z,98924.59
2022-12-12T11:38:28.233Z,98914.63
2022-12-12T11:41:04.796Z,98911.19
2022-12-12T11:43:36.997Z,98918.28
2022-12-12T11:46:16.269Z,98923.69
2022-12-12T11:48:47.441Z,98913.16
2022-12-12T11:51:31.613Z,98928.69
2022-12-12T11:53:59.964Z,98922.78
2022-12-12T11:56:53.249Z,98926.75
2022-12-12T11:59:57.722Z,98921.38
2022-12-12T12:02:46.844Z,98913.78
2022-12-12T12:05:26.700Z,98918.03
2022-12-12T12:08:12.764Z,98924.22
2022-12-12T12:10:50.611Z,98925.06
2022-12-12T12:14:14.868Z,98923.28
2022-12-12T12:16:48.245Z,98927.22
2022-12-12T12:19:33.388Z,98930.50
2022-12-12T12:22:28.630Z,98918.94
2022-12-12T12:25:29.456Z,98926.47
2022-12-12T12:28:10.939Z,98919.41
2022-12-12T12:30:59.858Z,98918.88
2022-12-12T12:33:40.763Z,98916.78
2022-12-12T12:36:22.996Z,98921.28
2022-12-12T12:39:03.356Z,98912.16
2022-12-12T12:41:45.664Z,98911.69
2022-12-12T12:44:34.776Z,98907.75
2022-12-12T12:47:19.636Z,98911.78
2022-12-12T12:49:54.359Z,98905.22
2022-12-12T12:52:32.564Z,98909.41
2022-12-12T12:55:03.205Z,98912.03
2022-12-12T12:57:33.059Z,98918.09
2022-12-12T13:00:06.111Z,98913.00
2022-12-12T13:03:01.401Z,98918.03
2022-12-12T13:05:29.059Z,98917.84
2022-12-12T13:08:14.560Z,98921.78
2022-12-12T13:10:47.849Z,98918.59
2022-12-12T13:13:30.907Z,98921.31
2022-12-12T13:16:27.189Z,98920.06
2022-12-12T13:19:28.145Z,98925.09
2022-12-12T13:22:04.600Z,98919.00
2022-12-12T13:24:59.864Z,98921.59
2022-12-12T13:27:52.870Z,98924.91
2022-12-12T13:30:24.338Z,98936.88
2022-12-12T13:33:43.033Z,98929.63
2022-12-12T13:36:29.653Z,98926.44
2022-12-12T13:39:01.256Z,98934.22
2022-12-12T13:41:57.098Z,98935.53
2022-12-12T13:44:48.942Z,98930.56
2022-12-12T13:47:23.274Z,98932.97
2022-12-12T13:50:06.964Z,98937.94
2022-12-12T13:52:43.429Z,98941.34
2022-12-12T13:55:13.987Z,98942.88
2022-12-12T13:57:59.840Z,98942.09
2022-12-12T14:00:38.340Z,98942.09
2022-12-12T14:03:11.575Z,98943.50
2022-12-12T14:05:43.583Z,98949.56
2022-12-12T14:08:10.646Z,98946.06
2022-12-12T14:10:40.897Z,98948.34
2022-12-12T14:13:17.139Z,98958.31
2022-12-12T14:15:46.888Z,98953.81
2022-12-12T14:18:28.484Z,98957.47
2022-12-12T14:21:04.923Z,98961.25
2022-12-12T14:23:35.180Z,98964.41
2022-12-12T14:26:28.239Z,98962.59
2022-12-12T14:29:19.384Z,98964.56
2022-12-12T14:32:11.995Z,98957.63
2022-12-12T14:35:05.731Z,98966.69
2022-12-12T14:38:02.421Z,98967.88
2022-12-12T14:40:38.000Z,98964.28
2022-12-12T14:43:21.994Z,98967.00
2022-12-12T14:45:50.295Z,98961.59
2022-12-12T14:48:28.928Z,98965.22
2022-12-12T14:51:05.056Z,98960.53
2022-12-12T14:53:38.616Z,98959.97
2022-12-12T14:56:11.448Z,98963.59
2022-12-12T14:58:42.318Z,98958.59
2022-12-12T15:01:09.953Z,98964.19
2022-12-12T15:04:05.792Z,98963.44
2022-12-12T15:06:43.104Z,98954.53
2022-12-12T15:09:24.637Z,98960.88
2022-12-12T15:11:54.392Z,98969.91
2022-12-12T15:14:27.869Z,98967.81
2022-12-12T15:17:21.419Z,98967.97
2022-12-12T15:19:52.255Z,98969.75
2022-12-12T15:22:25.751Z,98974.75
2022-12-12T15:24:56.619Z,98974.75
2022-12-12T15:27:41.600Z,98973.69
2022-12-12T15:30:19.763Z,98974.91
2022-12-12T15:32:48.529Z,98978.66
2022-12-12T15:35:18.986Z,98977.91
2022-12-12T15:38:07.952Z,98994.03
2022-12-12T15:40:39.813Z,98995.41
2022-12-12T15:43:16.423Z,98989.81
2022-12-12T15:45:50.221Z,98996.28
2022-12-12T15:48:19.008Z,98997.66
2022-12-12T15:50:46.393Z,98995.66
2022-12-12T15:53:31.848Z,98996.44
2022-12-12T15:56:09.543Z,98997.94
2022-12-12T15:58:42.845Z,98996.28
2022-12-12T16:01:21.356Z,98992.53
2022-12-12T16:03:53.082Z,98993.41
2022-12-12T16:06:24.123Z,98999.59
2022-12-12T16:09:16.222Z,98989.97
2022-12-12T16:11:56.942Z,98996.28
2022-12-12T16:14:41.602Z,99001.72
2022-12-12T16:17:28.299Z,99006.88
2022-12-12T16:20:13.984Z,99013.19
2022-12-12T16:22:44.836Z,99006.25
2022-12-12T16:25:29.484Z,99016.34
2022-12-12T16:28:07.240Z,99011.84
2022-12-12T16:30:42.809Z,99025.56
2022-12-12T16:33:12.300Z,99022.84
2022-12-12T16:35:39.804Z,99013.19
2022-12-12T16:38:17.274Z,99024.03
2022-12-12T16:40:46.494Z,99025.56
2022-12-12T16:43:16.743Z,99031.91
2022-12-12T16:45:44.118Z,99028.44
2022-12-12T16:48:20.005Z,99030.06
2022-12-12T16:50:51.200Z,99030.06
2022-12-12T16:53:20.082Z,99042.16
2022-12-12T16:55:50.232Z,99045.16
2022-12-12T16:58:21.337Z,99041.22
2022-12-12T17:00:49.934Z,99044.72
2022-12-12T17:03:22.181Z,99053.63
2022-12-12T17:05:50.451Z,99057.38
2022-12-12T17:08:19.411Z,99055.41
2022-12-12T17:10:50.933Z,99055.09
2022-12-12T17:13:21.456Z,99059.03
2022-12-12T17:15:49.109Z,99058.72
2022-12-12T17:18:17.620Z,99064.16
2022-12-12T17:20:46.112Z,99055.72
2022-12-12T17:23:28.646Z,99065.03
2022-12-12T17:26:02.952Z,99068.97
2022-12-12T17:28:33.762Z,99076.34
2022-12-12T17:31:01.852Z,99070.63
2022-12-12T17:33:29.697Z,99074.84
2022-12-12T17:36:06.712Z,99080.44
2022-12-12T17:38:34.766Z,99082.84
2022-12-12T17:41:09.084Z,99087.81
2022-12-12T17:43:40.894Z,99079.81
2022-12-12T17:46:14.875Z,99083.16
2022-12-12T17:48:48.341Z,99081.94
2022-12-12T17:51:19.745Z,99082.84
2022-12-12T17:53:47.745Z,99087.66
2022-12-12T17:56:20.452Z,99087.22
2022-12-12T17:58:50.680Z,99092.47
2022-12-12T18:01:25.955Z,99089.78
2022-12-12T18:03:56.022Z,99096.22
2022-12-12T18:06:24.859Z,99099.38
2022-12-12T18:08:53.532Z,99101.66
2022-12-12T18:11:27.549Z,99102.72
2022-12-12T18:14:00.539Z,99103.94
2022-12-12T18:16:30.697Z,99093.97
2022-12-12T18:18:58.687Z,99097.28
2022-12-12T18:24:25.748Z,99112.50
2022-12-12T18:26:55.747Z,99117.94
2022-12-12T18:29:26.306Z,99116.53
2022-12-12T18:31:55.594Z,99117.44
2022-12-12T18:34:25.774Z,99123.31
2022-12-12T18:36:56.620Z,99119.06
2022-12-12T18:39:25.486Z,99120.75
2022-12-12T18:41:53.418Z,99124.63
2022-12-12T18:44:21.627Z,99132.03
2022-12-12T18:46:51.657Z,99132.19
2022-12-12T18:49:21.807Z,99133.69
2022-12-12T18:51:49.750Z,99135.34
2022-12-12T18:54:18.846Z,99133.06
2022-12-12T18:56:47.467Z,99129.28
2022-12-12T18:59:16.448Z,99126.13
2022-12-12T19:01:45.250Z,99138.94
2022-12-12T19:04:20.899Z,99146.00
2022-12-12T19:06:52.628Z,99148.22
2022-12-12T19:09:21.981Z,99150.63
2022-12-12T19:11:51.714Z,99146.72
2022-12-12T19:14:22.651Z,99147.34
2022-12-12T19:16:50.334Z,99152.75
2022-12-12T19:19:19.808Z,99146.59
2022-12-12T19:21:49.319Z,99150.81
2022-12-12T19:24:21.905Z,99147.91
2022-12-12T19:26:50.998Z,99147.47
2022-12-12T19:29:20.964Z,99156.81
2022-12-12T19:31:58.316Z,99164.63
2022-12-12T19:34:27.041Z,99166.75
2022-12-12T19:36:55.560Z,99166.13
2022-12-12T19:39:35.271Z,99162.88
2022-12-12T19:42:05.047Z,99168.69
2022-12-12T19:44:35.591Z,99170.06
2022-12-12T19:47:08.260Z,99172.00
2022-12-12T19:49:40.350Z,99172.75
2022-12-12T19:52:14.300Z,99161.34
2022-12-12T19:54:43.240Z,99163.47
2022-12-12T19:57:11.417Z,99174.16
2022-12-12T19:59:43.386Z,99176.75
2022-12-12T20:02:12.504Z,99184.88
2022-12-12T20:04:42.089Z,99186.41
2022-12-12T20:07:11.146Z,99191.50
2022-12-12T20:09:54.866Z,99190.75
2022-12-12T20:12:23.479Z,99188.81
2022-12-12T20:14:51.714Z,99187.91
2022-12-12T20:17:24.898Z,99195.00
2022-12-12T20:19:54.245Z,99186.84
2022-12-12T20:22:22.517Z,99183.69
2022-12-12T20:24:50.711Z,99180.72
2022-12-12T20:27:22.892Z,99186.28
2022-12-12T20:29:53.279Z,99190.97
2022-12-12T20:32:24.840Z,99186.00
2022-12-12T20:34:56.066Z,99186.13
2022-12-12T20:37:27.025Z,99177.38
2022-12-12T20:39:57.233Z,99181.00
2022-12-12T20:42:26.383Z,99183.56
2022-12-12T20:44:54.952Z,99188.03
2022-12-12T20:47:25.729Z,99189.69
2022-12-12T20:49:56.157Z,99191.66
2022-12-12T20:52:24.679Z,99189.56
2022-12-12T20:54:53.292Z,99196.19
2022-12-12T20:57:21.860Z,99190.63
2022-12-12T20:59:49.848Z,99200.88
2022-12-12T21:02:17.839Z,99201.00
2022-12-12T21:04:47.837Z,99212.75
2022-12-12T21:07:16.161Z,99214.72
2022-12-12T21:09:44.180Z,99212.91
2022-12-12T21:12:11.806Z,99219.22
2022-12-12T21:14:39.171Z,99224.31
2022-12-12T21:17:07.431Z,99230.31
2022-12-12T21:19:34.755Z,99238.72
2022-12-12T21:22:03.337Z,99243.94
2022-12-12T21:24:31.315Z,99241.94
2022-12-12T21:27:01.843Z,99251.38
2022-12-12T21:29:29.205Z,99251.94
2022-12-12T21:32:05.166Z,99245.47
2022-12-12T21:34:35.185Z,99242.25
2022-12-12T21:37:02.757Z,99242.94
2022-12-12T21:39:31.038Z,99235.25
2022-12-12T21:41:58.524Z,99233.44
2022-12-12T21:44:26.696Z,99243.25
2022-12-12T21:46:57.213Z,99232.50
2022-12-12T21:49:26.891Z,99239.84
2022-12-12T21:51:58.490Z,99244.13
2022-12-12T21:54:29.088Z,99244.38
2022-12-12T21:56:59.592Z,99249.34
2022-12-12T21:59:26.828Z,99254.16
2022-12-12T22:02:00.092Z,99247.78
2022-12-12T22:04:28.743Z,99254.53
2022-12-12T22:06:58.631Z,99252.88
2022-12-12T22:09:27.328Z,99258.63
2022-12-12T22:12:03.703Z,99249.44
2022-12-12T22:14:34.152Z,99246.19
2022-12-12T22:17:03.147Z,99258.13
2022-12-12T22:19:30.576Z,99256.50
2022-12-12T22:21:58.838Z,99258.81
2022-12-12T22:24:26.400Z,99265.88
2022-12-12T22:26:54.074Z,99269.34
2022-12-12T22:29:21.325Z,99262.72
2022-12-12T22:31:52.640Z,99262.97
2022-12-12T22:34:22.421Z,99273.94
2022-12-12T22:36:53.740Z,99278.28
2022-12-12T22:39:25.968Z,99275.59
2022-12-12T22:41:56.005Z,99275.38
2022-12-12T22:44:25.559Z,99276.81
2022-12-12T22:46:54.875Z,99278.06
2022-12-12T22:49:26.279Z,99276.34
2022-12-12T22:51:57.767Z,99276.25
2022-12-12T22:54:25.883Z,99289.13
2022-12-12T22:56:55.674Z,99287.75
2022-12-12T22:59:24.355Z,99289.38
2022-12-12T23:01:52.469Z,99292.16
2022-12-12T23:04:19.696Z,99285.66
2022-12-12T23:06:47.136Z,99284.91
2022-12-12T23:09:18.146Z,99285.44
2022-12-12T23:11:46.101Z,99295.41
2022-12-12T23:14:16.243Z,99286.75
2022-12-12T23:16:44.496Z,99293.91
2022-12-12T23:19:17.452Z,99294.44
2022-12-12T23:21:45.786Z,99295.09
2022-12-12T23:24:13.430Z,99298.28
2022-12-12T23:26:42.929Z,99296.78
2022-12-12T23:29:14.174Z,99292.97
2022-12-12T23:31:41.591Z,99288.97
2022-12-12T23:34:22.812Z,99289.09
2022-12-12T23:36:52.515Z,99285.94
2022-12-12T23:39:20.382Z,99280.66
2022-12-12T23:41:48.153Z,99286.81
2022-12-12T23:44:17.816Z,99284.53
2022-12-12T23:46:47.987Z,99295.69
2022-12-12T23:49:20.672Z,99294.84
2022-12-12T23:51:50.383Z,99287.91
2022-12-12T23:54:20.242Z,99296.47
2022-12-12T23:56:50.983Z,99298.63
2022-12-12T23:59:19.834Z,99296.34
